Terminal Aerodrome Forecast
Issued by NWS

Home | Current Version | Previous Version | Text Only | Print | Product List | Glossary On
Versions: 1 2 3 4 5 6 7 8 9 10 11 12 13 14 15 16 17 18 19 20
000
FTUS43 KMQT 260500
TAFSAW
TAF
KSAW 260521Z 2606/2706 22004KT 3SM -SN OVC010
      TEMPO 2606/2608 2SM -SN OVC007
     FM260800 VRB03KT P6SM VCSH OVC015
     FM261800 36003KT P6SM OVC010
     FM262100 36006KT P6SM -SN OVC006
      AMD LTD TO CLD VIS AND WIND TIL 261100=

USA.gov is the U.S. government's official web portal to all federal, state and local government web resources and services.